Terminal Aerodrome Forecast
Issued by NWS Burlington, VT

Home | Current Version | Previous Version | Text Only | Print | Product List | Glossary On
Versions: 1 2 3 4 5 6 7 8 9 10 11 12 13 14 15 16 17
174
FTUS41 KBTV 231724
TAFBTV
TAF
KBTV 231724Z 2318/2418 31008G16KT P6SM VCTS SCT050CB BKN090
      TEMPO 2319/2323 VRB15G35KT 3SM SHRA BKN040
     FM232300 32005KT P6SM VCSH SCT025 BKN040
     FM240400 VRB03KT P6SM BKN025
     FM241200 33008KT P6SM SCT035=

USA.gov is the U.S. government's official web portal to all federal, state and local government web resources and services.